• Join FlightAware (Why Join?)
  • Login
  • US Flag 
09:11AM EDT


 

Airport Tracker/Info


-or-


 

Live Flight TrackerFlight Track Log ✈ N327SR ✈ 15-Jul-2014 ✈ KPXE - KIPJ

Flight Track Log - Related Links

Times and Time Zones

All times are in EDT time to prevent confusion due to time zone crossing. See the N327SR flight status page for this flight to view local times or setup timezone preferences in your user account.

Time Position Orientation Groundspeed Altitude Reporting Facility
EDT Latitude Longitude Course Direction KTS MPH feet Rate Location/Type
02:11PM 32.5333 -83.8500 37° Northeast 148 170 1,900  Level Atlanta TRACON
02:12PM 32.5500 -83.8833 301° West 153 176 2,800 780 Climbing Atlanta TRACON
02:13PM 32.6000 -83.8500 29° Northeast 141 162 3,500 720 Climbing Atlanta TRACON
02:14PM 32.6333 -83.8167 40° Northeast 141 162 4,400 720 Climbing Atlanta TRACON
02:15PM 32.6500 -83.8000 40° Northeast 144 166 5,000 720 Climbing Atlanta TRACON
02:16PM 32.6833 -83.7667 40° Northeast 141 162 5,800 720 Climbing Atlanta TRACON
02:17PM 32.7167 -83.7333 40° Northeast 143 165 6,500 540 Climbing Atlanta TRACON
02:18PM 32.7666 -83.5368 37° Northeast  Level FlightAware Approximate
02:18PM 32.7500 -83.7167 23° Northeast 151 174 7,000  Level Atlanta TRACON
02:19PM 32.7833 -83.6833 40° Northeast 162 186 7,200 60 Climbing Atlanta TRACON
02:20PM 32.8333 -83.6333 40° Northeast 171 197 7,200  Level Atlanta TRACON
02:21PM 32.8667 -83.6167 23° Northeast 166 191 7,200  Level Atlanta TRACON
02:22PM 32.9000 -83.5833 40° Northeast 164 189 7,200 -60 Level Atlanta TRACON
02:23PM 32.9333 -83.5500 40° Northeast 163 188 7,100  Descending Atlanta TRACON
02:24PM 32.9667 -83.5167 40° Northeast 163 188 7,200  Climbing Atlanta TRACON
02:25PM 33.0000 -83.4833 40° Northeast 166 191 7,200  Level Atlanta TRACON
02:26PM 33.0500 -83.4500 29° Northeast 166 191 7,200  Level Atlanta TRACON
02:28PM 33.1167 -83.3833 43° Northeast 165 190 7,200  Level Atlanta TRACON
02:29PM 33.1500 -83.3500 40° Northeast 163 188 7,200  Level Atlanta TRACON
02:30PM 33.2000 -83.3167 29° Northeast 162 186 7,200  Level Atlanta TRACON
02:31PM 33.2333 -83.2833 40° Northeast 163 188 7,200 -60 Level Atlanta TRACON
02:32PM 33.2667 -83.2500 40° Northeast 162 186 7,100 -60 Descending Atlanta TRACON
02:33PM 33.3000 -83.2167 40° Northeast 164 189 7,100  Level Atlanta TRACON
02:49PM 33.9069 -82.7997 35° Northeast 165 190 7,200  Climbing Atlanta Center
02:50PM 33.8284 -82.6228 35° Northeast  Level FlightAware Approximate
02:50PM 33.9400 -82.7642 42° Northeast 165 190 7,200  Level Atlanta Center
02:51PM 33.8651 -82.5920 35° Northeast  Level FlightAware Approximate
02:51PM 33.9772 -82.7311 36° Northeast 165 190 7,200  Level Atlanta Center
02:52PM 33.9018 -82.5611 35° Northeast  Level FlightAware Approximate
02:52PM 34.0103 -82.6931 44° Northeast 160 184 7,200  Level Atlanta Center
02:53PM 33.9385 -82.5301 35° Northeast  Level FlightAware Approximate
02:53PM 34.0475 -82.6600 36° Northeast 160 184 7,200  Level Atlanta Center
02:54PM 34.0867 -82.6192 41° Northeast 160 184 7,200 -60 Level Atlanta Center
02:55PM 34.1194 -82.5833 42° Northeast 160 184 7,100 -60 Descending Atlanta Center
02:56PM 34.1567 -82.5478 38° Northeast 160 184 7,100  Level Atlanta Center
02:57PM 34.1917 -82.5094 42° Northeast 160 184 7,100  Level Atlanta Center
02:58PM 34.2289 -82.4736 39° Northeast 160 184 7,100 -60 Level Atlanta Center
02:59PM 34.2658 -82.4353 41° Northeast 165 190 7,000  Descending Atlanta Center
03:00PM 34.3008 -82.3967 42° Northeast 165 190 7,100  Climbing Atlanta Center
03:01PM 34.3358 -82.3608 40° Northeast 159 183 7,100  Level Atlanta Center
03:02PM 34.3750 -82.3222 39° Northeast 159 183 7,100  Level Atlanta Center
03:03PM 34.4100 -82.2839 42° Northeast 164 189 7,100 -180 Level Atlanta Center
03:17PM 34.9289 -81.7461 41° Northeast 167 192 5,100 -180 Descending Atlanta Center
03:18PM 34.8803 -81.7764 40° Northeast  Level FlightAware Approximate
03:18PM 34.9578 -81.7147 42° Northeast 167 192 5,100  Level Atlanta Center
03:19PM 34.9134 -81.7419 40° Northeast  Level FlightAware Approximate
03:19PM 34.9944 -81.6783 39° Northeast 166 191 5,100  Level Atlanta Center
03:20PM 34.9465 -81.7073 41° Northeast  Level FlightAware Approximate
03:20PM 35.0272 -81.6444 40° Northeast 165 190 5,100  Level Atlanta Center
03:21PM 34.9797 -81.6728 41° Northeast  Level FlightAware Approximate
03:21PM 35.0661 -81.6053 39° Northeast 176 203 5,100  Level Atlanta Center
03:22PM 35.0128 -81.6382 41° Northeast  Level FlightAware Approximate
03:22PM 35.1028 -81.5661 41° Northeast 171 197 5,100  Level Atlanta Center
03:23PM 35.1356 -81.5294 42° Northeast 169 194 5,100 -60 Level Atlanta Center
03:24PM 35.1764 -81.4903 38° Northeast 168 193 5,000 -300 Descending Atlanta Center
03:25PM 35.2197 -81.4633 27° Northeast 188 216 4,500 -420 Descending Atlanta Center
03:26PM 35.2672 -81.4339 27° Northeast 182 209 4,200 -180 Descending Atlanta Center
03:27PM 35.3083 -81.4072 28° Northeast 167 192 4,200 -180 Level Atlanta Center
03:28PM 35.3494 -81.3778 30° Northeast 174 200 3,900 -360 Descending Atlanta Center
03:29PM 35.3794 -81.3286 53° Northeast 188 216 3,500 -420 Descending Atlanta Center
03:30PM 35.4139 -81.2739 52° Northeast 177 204 3,100 -420 Descending Atlanta Center